createdAt,value
2019-05-17T00:02:17.487Z,7.45
2019-05-17T00:04:47.165Z,7.17
2019-05-17T00:07:17.499Z,6.95
2019-05-17T00:09:47.844Z,7.15
2019-05-17T00:12:17.694Z,7.15
2019-05-17T00:14:47.348Z,6.60
2019-05-17T00:17:17.570Z,7.22
2019-05-17T00:19:47.215Z,6.40
2019-05-17T00:22:16.858Z,6.50
2019-05-17T00:24:47.837Z,7.00
2019-05-17T00:27:18.799Z,6.45
2019-05-17T00:29:48.409Z,6.75
2019-05-17T00:32:17.815Z,7.33
2019-05-17T00:34:47.375Z,6.70
2019-05-17T00:37:17.774Z,7.05
2019-05-17T00:39:47.617Z,7.60
2019-05-17T00:42:17.260Z,6.97
2019-05-17T00:44:47.383Z,6.30
2019-05-17T00:47:19.588Z,7.28
2019-05-17T00:49:49.338Z,6.95
2019-05-17T00:52:19.355Z,6.50
2019-05-17T00:54:49.530Z,6.80
2019-05-17T00:57:20.548Z,6.53
2019-05-17T00:59:50.964Z,6.70
2019-05-17T01:02:21.007Z,6.60
2019-05-17T01:04:50.422Z,6.95
2019-05-17T01:07:22.846Z,6.42
2019-05-17T01:09:56.571Z,6.78
2019-05-17T01:12:36.605Z,6.83
2019-05-17T01:15:09.088Z,6.80
2019-05-17T01:17:38.624Z,7.22
2019-05-17T01:20:09.065Z,6.47
2019-05-17T01:22:39.298Z,6.40
2019-05-17T01:25:12.150Z,6.10
2019-05-17T01:27:52.305Z,6.58
2019-05-17T01:30:28.468Z,6.47
2019-05-17T01:33:01.857Z,6.65
2019-05-17T01:35:37.141Z,6.42
2019-05-17T01:38:09.487Z,6.20
2019-05-17T01:40:46.480Z,7.05
2019-05-17T01:43:27.186Z,6.58
2019-05-17T01:49:02.792Z,6.60
2019-05-17T01:51:29.586Z,6.80
2019-05-17T01:54:00.157Z,7.08
2019-05-17T01:56:36.992Z,7.00
2019-05-17T01:59:09.606Z,6.60
2019-05-17T02:01:41.335Z,7.30
2019-05-17T02:04:14.184Z,7.60
2019-05-17T02:06:49.524Z,7.97
2019-05-17T02:09:34.846Z,8.08
2019-05-17T02:11:53.613Z,8.20
2019-05-17T02:14:23.342Z,8.43
2019-05-17T02:16:52.849Z,8.38
2019-05-17T02:19:26.960Z,8.85
2019-05-17T02:21:57.092Z,9.43
2019-05-17T02:24:41.682Z,8.38
2019-05-17T02:27:11.254Z,8.45
2019-05-17T02:29:42.421Z,8.55
2019-05-17T02:32:13.895Z,8.53
2019-05-17T02:34:53.017Z,9.00
2019-05-17T02:37:29.472Z,8.30
2019-05-17T02:40:07.227Z,8.20
2019-05-17T02:42:42.978Z,8.33
2019-05-17T02:45:15.017Z,8.45
2019-05-17T02:47:49.503Z,5.80
2019-05-17T02:50:19.337Z,6.35
2019-05-17T02:52:52.778Z,7.25
2019-05-17T02:55:26.059Z,7.60
2019-05-17T02:57:58.135Z,7.20
2019-05-17T03:00:28.719Z,7.75
2019-05-17T03:03:03.388Z,8.28
2019-05-17T03:05:34.133Z,8.28
2019-05-17T03:08:04.550Z,9.40
2019-05-17T03:10:34.261Z,9.10
2019-05-17T03:13:05.423Z,9.03
2019-05-17T03:15:37.327Z,9.38
2019-05-17T03:18:08.977Z,10.48
2019-05-17T03:20:38.436Z,10.40
2019-05-17T03:23:08.300Z,11.05
2019-05-17T03:25:37.757Z,11.60
2019-05-17T03:28:07.334Z,10.55
2019-05-17T03:30:46.023Z,11.22
2019-05-17T03:33:15.968Z,11.75
2019-05-17T03:35:45.794Z,11.70
2019-05-17T03:38:14.326Z,11.80
2019-05-17T03:41:07.712Z,11.75
2019-05-17T03:43:16.664Z,11.40
2019-05-17T03:45:46.287Z,11.73
2019-05-17T03:48:22.140Z,11.25
2019-05-17T03:50:53.042Z,11.70
2019-05-17T03:53:23.048Z,11.03
2019-05-17T03:55:53.954Z,11.38
2019-05-17T03:58:23.868Z,12.30
2019-05-17T04:00:53.721Z,11.20
2019-05-17T04:03:23.367Z,11.93
2019-05-17T04:05:54.295Z,12.78
2019-05-17T04:08:23.707Z,11.60
2019-05-17T04:10:53.238Z,12.00
2019-05-17T04:13:23.527Z,11.65
2019-05-17T04:15:53.401Z,11.80
2019-05-17T04:18:23.670Z,11.88
2019-05-17T04:20:53.214Z,11.35
2019-05-17T04:23:23.568Z,12.40
2019-05-17T04:25:53.357Z,11.12
2019-05-17T04:28:23.299Z,15.13
2019-05-17T04:30:53.694Z,14.47
2019-05-17T04:33:23.619Z,13.28
2019-05-17T04:35:54.114Z,12.10
2019-05-17T04:38:24.067Z,11.40
2019-05-17T04:40:54.628Z,11.00
2019-05-17T04:43:24.081Z,10.72
2019-05-17T04:45:53.920Z,10.90
2019-05-17T04:48:24.453Z,10.78
2019-05-17T04:51:02.570Z,10.63
2019-05-17T04:56:14.317Z,11.00
2019-05-17T04:58:50.195Z,10.65
2019-05-17T05:01:18.680Z,10.55
2019-05-17T05:03:48.046Z,10.98
2019-05-17T05:06:23.155Z,10.65
2019-05-17T05:08:53.880Z,11.15
2019-05-17T05:11:23.584Z,11.12
2019-05-17T05:13:53.188Z,13.03
2019-05-17T05:16:22.782Z,13.22
2019-05-17T05:21:53.140Z,13.55
2019-05-17T05:27:27.540Z,12.88
2019-05-17T05:29:56.981Z,13.03
2019-05-17T05:32:26.552Z,12.20
2019-05-17T05:34:56.132Z,13.58
2019-05-17T05:37:25.739Z,12.88
2019-05-17T05:39:56.201Z,16.95
2019-05-17T05:42:25.634Z,17.12
2019-05-17T05:44:55.619Z,13.30
2019-05-17T05:47:25.300Z,10.82
2019-05-17T05:49:57.606Z,9.83
2019-05-17T05:52:28.657Z,11.08
2019-05-17T05:54:58.260Z,13.80
2019-05-17T05:57:27.631Z,13.10
2019-05-17T05:59:57.632Z,10.82
2019-05-17T06:02:27.134Z,7.80
2019-05-17T06:07:52.286Z,5.90
2019-05-17T06:10:26.178Z,5.22
2019-05-17T06:13:06.377Z,5.20
2019-05-17T06:15:36.031Z,6.15
2019-05-17T06:21:17.479Z,4.97
2019-05-17T06:24:03.380Z,5.70
2019-05-17T06:26:44.379Z,5.03
2019-05-17T06:29:29.895Z,4.58
2019-05-17T06:35:08.198Z,4.60
2019-05-17T06:41:33.790Z,4.42
2019-05-17T06:43:17.571Z,4.73
2019-05-17T06:48:43.085Z,5.28
2019-05-17T06:57:13.965Z,6.42
2019-05-17T07:00:19.890Z,6.00
2019-05-17T07:03:09.125Z,5.42
2019-05-17T07:05:45.834Z,6.10
2019-05-17T07:24:00.499Z,8.13
2019-05-17T07:29:54.644Z,6.62
2019-05-17T07:32:33.820Z,7.15
2019-05-17T07:48:55.505Z,5.97
2019-05-17T08:01:02.150Z,6.40
2019-05-17T08:35:50.640Z,7.15
2019-05-17T09:00:40.509Z,3.85
2019-05-17T09:25:59.372Z,3.33
2019-05-17T09:28:30.025Z,3.58
2019-05-17T10:16:00.407Z,3.70
2019-05-17T10:33:06.725Z,3.75
2019-05-17T10:39:24.754Z,4.15
2019-05-17T14:41:04.140Z,2.85
2019-05-17T14:43:05.190Z,3.30
2019-05-17T14:45:41.745Z,8.30
2019-05-17T14:48:15.775Z,3.40
2019-05-17T14:51:07.335Z,2.83
2019-05-17T14:53:48.933Z,3.20
2019-05-17T14:56:56.587Z,2.90
2019-05-17T15:02:47.537Z,2.90
2019-05-17T15:05:40.510Z,2.92
2019-05-17T15:08:25.028Z,3.17
2019-05-17T15:11:08.306Z,3.70
2019-05-17T15:13:38.522Z,3.05
2019-05-17T15:16:09.281Z,2.90
2019-05-17T15:18:39.062Z,2.80
2019-05-17T15:21:25.029Z,2.55
2019-05-17T15:23:54.791Z,2.80
2019-05-17T15:26:26.146Z,2.90
2019-05-17T15:28:55.554Z,2.52
2019-05-17T15:31:24.911Z,2.55
2019-05-17T15:33:54.278Z,2.40
2019-05-17T15:36:23.701Z,2.22
2019-05-17T15:38:53.225Z,2.30
2019-05-17T15:41:22.663Z,2.20
2019-05-17T15:43:52.141Z,2.10
2019-05-17T15:46:21.701Z,2.30
2019-05-17T15:48:51.057Z,2.15
2019-05-17T15:51:20.535Z,2.40
2019-05-17T15:53:49.964Z,2.35
2019-05-17T15:56:19.448Z,3.10
2019-05-17T15:58:48.793Z,2.70
2019-05-17T16:01:18.262Z,1.90
2019-05-17T16:03:47.719Z,2.10
2019-05-17T16:06:18.339Z,2.10
2019-05-17T16:08:49.312Z,2.00
2019-05-17T16:11:18.737Z,1.85
2019-05-17T16:13:48.181Z,2.00
2019-05-17T16:16:17.851Z,2.10
2019-05-17T16:18:47.196Z,2.15
2019-05-17T16:21:16.604Z,1.77
2019-05-17T16:23:45.965Z,2.10
2019-05-17T16:26:15.457Z,2.05
2019-05-17T16:28:45.871Z,2.20
2019-05-17T16:31:15.389Z,2.40
2019-05-17T16:33:45.004Z,1.92
2019-05-17T16:36:14.365Z,2.20
2019-05-17T16:38:43.834Z,2.67
2019-05-17T16:41:13.230Z,2.20
2019-05-17T16:43:42.583Z,2.05
2019-05-17T16:46:12.017Z,1.90
2019-05-17T16:48:41.457Z,2.35
2019-05-17T16:51:11.887Z,2.58
2019-05-17T16:53:41.225Z,3.08
2019-05-17T16:56:10.638Z,2.90
2019-05-17T16:58:40.152Z,2.98
2019-05-17T17:01:09.580Z,2.62
2019-05-17T17:03:44.301Z,6.12
2019-05-17T17:06:10.619Z,2.55
2019-05-17T17:08:41.584Z,2.47
2019-05-17T17:11:11.085Z,2.20
2019-05-17T17:13:40.638Z,2.20
2019-05-17T17:16:10.003Z,2.52
2019-05-17T17:18:40.421Z,2.08
2019-05-17T17:21:10.096Z,2.00
2019-05-17T17:26:08.025Z,2.10
2019-05-17T17:28:37.457Z,2.10
2019-05-17T17:31:11.023Z,2.42
2019-05-17T17:33:40.525Z,1.95
2019-05-17T17:36:09.943Z,1.85
2019-05-17T17:38:39.303Z,2.62
2019-05-17T17:41:08.724Z,2.52
2019-05-17T17:43:39.147Z,2.37
2019-05-17T17:46:08.607Z,2.00
2019-05-17T17:48:37.969Z,2.10
2019-05-17T17:51:07.436Z,2.33
2019-05-17T17:53:36.862Z,2.15
2019-05-17T17:56:06.283Z,2.30
2019-05-17T17:58:35.731Z,2.52
2019-05-17T18:01:05.355Z,2.60
2019-05-17T18:03:34.900Z,2.62
2019-05-17T18:06:04.411Z,3.10
2019-05-17T18:08:34.720Z,3.22
2019-05-17T18:11:04.413Z,3.50
2019-05-17T18:13:33.767Z,3.27
2019-05-17T18:16:03.143Z,3.20
2019-05-17T18:18:32.655Z,4.10
2019-05-17T18:21:02.061Z,4.10
2019-05-17T18:23:31.477Z,4.12
2019-05-17T18:26:00.820Z,3.83
2019-05-17T18:28:30.245Z,3.80
2019-05-17T18:30:59.658Z,3.52
2019-05-17T18:33:29.239Z,3.40
2019-05-17T18:35:58.818Z,3.92
2019-05-17T18:38:29.822Z,3.85
2019-05-17T18:40:59.238Z,4.22
2019-05-17T18:43:28.771Z,3.90
2019-05-17T18:45:58.246Z,3.65
2019-05-17T18:48:27.644Z,3.50
2019-05-17T18:50:57.178Z,3.70
2019-05-17T18:53:26.584Z,3.70
2019-05-17T18:55:55.954Z,3.80
2019-05-17T18:58:25.479Z,3.62
2019-05-17T19:00:54.831Z,3.35
2019-05-17T19:03:24.189Z,3.95
2019-05-17T19:05:53.553Z,3.92
2019-05-17T19:08:22.894Z,3.62
2019-05-17T19:10:52.243Z,3.83
2019-05-17T19:13:21.592Z,3.80
2019-05-17T19:15:51.009Z,3.60
2019-05-17T19:18:20.442Z,4.00
2019-05-17T19:20:50.828Z,3.33
2019-05-17T19:23:20.294Z,3.30
2019-05-17T19:25:49.775Z,3.50
2019-05-17T19:28:19.206Z,3.25
2019-05-17T19:30:48.632Z,2.90
2019-05-17T19:33:18.087Z,3.20
2019-05-17T19:35:47.616Z,3.02
2019-05-17T19:38:17.141Z,3.20
2019-05-17T19:40:46.629Z,3.10
2019-05-17T19:43:16.178Z,3.52
2019-05-17T19:45:45.637Z,3.67
2019-05-17T19:48:15.220Z,3.92
2019-05-17T19:50:44.766Z,3.52
2019-05-17T19:53:14.262Z,3.52
2019-05-17T19:55:43.737Z,3.60
2019-05-17T19:58:13.190Z,3.42
2019-05-17T20:00:42.663Z,3.72
2019-05-17T20:03:12.364Z,3.60
2019-05-17T20:05:41.760Z,3.33
2019-05-17T20:08:11.381Z,3.30
2019-05-17T20:10:41.456Z,4.20
2019-05-17T20:13:10.925Z,3.60
2019-05-17T20:15:40.547Z,4.00
2019-05-17T20:18:10.286Z,3.95
2019-05-17T20:20:39.878Z,3.60
2019-05-17T20:23:09.321Z,3.75
2019-05-17T20:25:38.785Z,3.35
2019-05-17T20:28:08.300Z,3.00
2019-05-17T20:30:37.786Z,3.22
2019-05-17T20:33:09.215Z,3.10
2019-05-17T20:35:39.720Z,2.90
2019-05-17T20:38:09.316Z,3.17
2019-05-17T20:40:40.745Z,3.30
2019-05-17T20:43:10.332Z,3.20
2019-05-17T20:45:39.863Z,3.40
2019-05-17T20:48:09.401Z,2.90
2019-05-17T20:50:39.010Z,3.87
2019-05-17T20:53:18.322Z,3.40
2019-05-17T20:55:39.794Z,3.50
2019-05-17T20:58:09.312Z,3.50
2019-05-17T21:00:39.200Z,3.25
2019-05-17T21:03:08.668Z,3.35
2019-05-17T21:05:38.112Z,3.52
2019-05-17T21:08:07.701Z,3.60
2019-05-17T21:10:37.207Z,3.85
2019-05-17T21:13:08.228Z,3.50
2019-05-17T21:15:47.476Z,4.40
2019-05-17T21:18:09.943Z,4.05
2019-05-17T21:20:39.520Z,4.10
2019-05-17T21:23:09.564Z,4.17
2019-05-17T21:25:39.158Z,3.30
2019-05-17T21:28:08.872Z,3.15
2019-05-17T21:30:38.429Z,2.40
2019-05-17T21:33:07.924Z,2.35
2019-05-17T21:35:37.352Z,2.42
2019-05-17T21:38:06.794Z,2.42
2019-05-17T21:40:36.215Z,2.30
2019-05-17T21:43:05.582Z,2.02
2019-05-17T21:45:34.905Z,2.50
2019-05-17T21:48:04.332Z,2.20
2019-05-17T21:50:33.672Z,2.10
2019-05-17T21:53:03.182Z,2.37
2019-05-17T21:55:32.607Z,3.52
2019-05-17T21:58:02.007Z,3.35
2019-05-17T22:00:51.606Z,4.47
2019-05-17T22:03:21.298Z,4.08
2019-05-17T22:05:51.726Z,4.00
2019-05-17T22:08:21.177Z,4.65
2019-05-17T22:10:50.549Z,4.45
2019-05-17T22:13:19.945Z,4.83
2019-05-17T22:15:49.334Z,4.03
2019-05-17T22:18:18.855Z,3.75
2019-05-17T22:20:48.319Z,4.15
2019-05-17T22:23:17.669Z,4.90
2019-05-17T22:25:47.100Z,4.70
2019-05-17T22:28:16.523Z,3.72
2019-05-17T22:30:45.951Z,4.17
2019-05-17T22:33:15.305Z,4.80
2019-05-17T22:35:44.669Z,5.60
2019-05-17T22:38:14.264Z,5.03
2019-05-17T22:40:43.710Z,5.33
2019-05-17T22:43:13.062Z,5.45
2019-05-17T22:45:42.404Z,5.30
2019-05-17T22:48:11.828Z,4.10
2019-05-17T22:50:41.432Z,3.92
2019-05-17T22:53:10.783Z,3.33
2019-05-17T22:55:40.127Z,3.10
2019-05-17T22:58:09.463Z,3.60
2019-05-17T23:00:38.884Z,3.20
2019-05-17T23:03:08.264Z,2.45
2019-05-17T23:05:37.692Z,2.30
2019-05-17T23:08:07.059Z,2.12
2019-05-17T23:10:37.550Z,2.30
2019-05-17T23:13:06.922Z,2.02
2019-05-17T23:15:37.901Z,1.92
2019-05-17T23:18:07.335Z,2.20
2019-05-17T23:20:37.682Z,2.40
2019-05-17T23:23:07.039Z,2.65
2019-05-17T23:25:36.471Z,2.17
2019-05-17T23:28:05.898Z,2.37
2019-05-17T23:30:35.222Z,2.30
2019-05-17T23:33:04.606Z,1.90
2019-05-17T23:35:33.944Z,1.87
2019-05-17T23:38:03.294Z,1.92
2019-05-17T23:40:32.721Z,1.80
2019-05-17T23:43:02.112Z,2.20
2019-05-17T23:45:31.518Z,1.87
2019-05-17T23:48:00.947Z,1.70
2019-05-17T23:50:30.322Z,2.00
2019-05-17T23:53:00.732Z,1.77
2019-05-17T23:55:30.085Z,1.80
2019-05-17T23:57:59.499Z,1.92
